Time;durP1;ratioP1;P1;durP2;ratioP2;P2;SDS_P1;SDS_P2;PMS_P1;PMS_P2;Temp;Humidity;BMP_temperature;BMP_pressure;BME280_temperature;BME280_humidity;BME280_pressure;Samples;Min_cycle;Max_cycle;Signal;HPM_P1;HPM_P2
2022/03/04 00:02:05;;;;;;;22.13;10.95;;;2.80;99.90;;;;;;5149646;27;20023;-55
2022/03/04 00:04:33;;;;;;;28.85;11.60;;;2.70;99.90;;;;;;5150590;27;20025;-55
2022/03/04 00:06:59;;;;;;;23.67;10.85;;;2.70;99.90;;;;;;5151139;27;20487;-55
2022/03/04 00:09:25;;;;;;;25.33;11.32;;;2.70;99.90;;;;;;5149790;27;20038;-56
2022/03/04 00:11:50;;;;;;;23.30;11.25;;;2.60;99.90;;;;;;5151020;27;20330;-55
2022/03/04 00:14:17;;;;;;;25.83;11.73;;;2.60;99.90;;;;;;5150420;27;20027;-55
2022/03/04 00:16:43;;;;;;;25.30;11.82;;;2.50;99.90;;;;;;5148493;27;20426;-55
2022/03/04 00:19:10;;;;;;;23.20;10.85;;;2.60;99.90;;;;;;5142401;27;20026;-55
2022/03/04 00:21:47;;;;;;;21.63;11.02;;;2.50;99.90;;;;;;5150865;27;20124;-55
2022/03/04 00:24:13;;;;;;;24.92;11.48;;;2.50;99.90;;;;;;5150263;27;20042;-55
2022/03/04 00:26:39;;;;;;;21.60;10.75;;;2.50;99.90;;;;;;5150742;27;20346;-56
2022/03/04 00:29:06;;;;;;;23.55;11.60;;;2.50;99.90;;;;;;5150808;27;20067;-55
2022/03/04 00:31:32;;;;;;;22.02;10.93;;;2.50;99.90;;;;;;5150436;27;20372;-55
2022/03/04 00:33:58;;;;;;;21.58;10.65;;;2.40;99.90;;;;;;5150253;27;20029;-60
2022/03/04 00:36:24;;;;;;;26.27;12.15;;;2.40;99.90;;;;;;5150745;27;20097;-55
2022/03/04 00:38:51;;;;;;;21.42;10.48;;;2.40;99.90;;;;;;5149076;27;20355;-55
2022/03/04 00:41:18;;;;;;;24.30;11.27;;;2.50;99.90;;;;;;5150925;27;20079;-56
2022/03/04 00:43:45;;;;;;;28.67;11.95;;;2.50;99.90;;;;;;5148417;27;20023;-56
2022/03/04 00:46:11;;;;;;;20.10;10.60;;;2.50;99.90;;;;;;5147892;27;20015;-53
2022/03/04 00:48:37;;;;;;;26.50;11.32;;;2.50;99.90;;;;;;5141601;27;20236;-54
2022/03/04 00:51:03;;;;;;;27.13;13.10;;;2.50;99.90;;;;;;5150410;27;20408;-54
2022/03/04 00:53:30;;;;;;;25.27;10.77;;;2.50;99.90;;;;;;5149927;27;20109;-54
2022/03/04 00:55:55;;;;;;;26.80;11.15;;;2.40;99.90;;;;;;5150492;27;20023;-54
2022/03/04 00:58:21;;;;;;;22.73;11.73;;;2.50;99.90;;;;;;5150097;27;20054;-54
2022/03/04 01:00:46;;;;;;;23.92;11.38;;;2.40;99.90;;;;;;5150136;27;20015;-55
2022/03/04 01:03:12;;;;;;;26.58;11.98;;;2.40;99.90;;;;;;5149242;27;20038;-54
2022/03/04 01:05:38;;;;;;;22.48;11.07;;;2.40;99.90;;;;;;5149491;27;20042;-55
2022/03/04 01:08:04;;;;;;;24.55;12.10;;;2.40;99.90;;;;;;5148503;27;20030;-54
2022/03/04 01:10:30;;;;;;;24.10;11.50;;;2.40;99.90;;;;;;5149711;27;20022;-54
2022/03/04 01:12:55;;;;;;;24.65;11.57;;;2.40;99.90;;;;;;5126203;27;20027;-54
2022/03/04 01:15:21;;;;;;;21.02;10.18;;;2.40;99.90;;;;;;5118085;27;20030;-54
2022/03/04 01:17:46;;;;;;;22.88;11.57;;;2.40;99.90;;;;;;5129522;27;20287;-54
2022/03/04 01:20:12;;;;;;;23.63;12.05;;;2.40;99.90;;;;;;5141218;27;20037;-54
2022/03/04 01:22:37;;;;;;;23.90;12.35;;;2.40;99.90;;;;;;5118419;27;20041;-54
2022/03/04 01:25:03;;;;;;;22.10;11.57;;;2.50;99.90;;;;;;5109200;27;20084;-54
2022/03/04 01:27:29;;;;;;;25.00;11.80;;;2.40;99.90;;;;;;5117867;27;20020;-54
2022/03/04 01:29:55;;;;;;;26.35;12.63;;;2.40;99.90;;;;;;5116558;27;20034;-54
2022/03/04 01:32:20;;;;;;;22.30;11.48;;;2.40;99.90;;;;;;5117652;27;20023;-54
2022/03/04 01:34:46;;;;;;;24.75;12.32;;;2.40;99.90;;;;;;5126118;27;20030;-54
2022/03/04 01:37:11;;;;;;;27.88;13.00;;;2.30;99.90;;;;;;5125299;27;20032;-54
2022/03/04 01:39:37;;;;;;;29.55;12.05;;;2.30;99.90;;;;;;5108146;28;20055;-54
2022/03/04 01:42:03;;;;;;;25.85;12.25;;;2.40;99.90;;;;;;5108454;28;20031;-54
2022/03/04 01:44:29;;;;;;;19.50;10.43;;;2.40;99.90;;;;;;5107717;28;20621;-54
2022/03/04 01:46:54;;;;;;;28.13;14.73;;;2.40;99.90;;;;;;5110359;27;20024;-54
2022/03/04 01:49:20;;;;;;;24.50;12.30;;;2.40;99.90;;;;;;5140951;27;20536;-54
2022/03/04 01:51:46;;;;;;;28.95;12.65;;;2.40;99.90;;;;;;5149470;27;20462;-54
2022/03/04 01:54:11;;;;;;;22.58;11.80;;;2.30;99.90;;;;;;5148865;27;20026;-54
2022/03/04 01:56:37;;;;;;;24.52;12.00;;;2.30;99.90;;;;;;5148078;27;20035;-54
2022/03/04 01:59:03;;;;;;;21.17;11.57;;;2.30;99.90;;;;;;5149215;27;20535;-54
2022/03/04 02:01:30;;;;;;;25.42;11.65;;;2.30;99.90;;;;;;5148622;27;20368;-54
2022/03/04 02:03:55;;;;;;;24.02;11.98;;;2.30;99.90;;;;;;5147976;27;20046;-54
2022/03/04 02:06:21;;;;;;;27.95;11.85;;;2.20;99.90;;;;;;5149149;27;20062;-54
2022/03/04 02:08:47;;;;;;;18.42;11.15;;;2.20;99.90;;;;;;5148427;27;20019;-54
2022/03/04 02:11:12;;;;;;;21.23;10.35;;;2.20;99.90;;;;;;5149060;27;20034;-54
2022/03/04 02:13:39;;;;;;;22.13;11.85;;;2.20;99.90;;;;;;5147765;27;20061;-54
2022/03/04 02:16:23;;;;;;;27.30;13.40;;;2.10;99.90;;;;;;5144686;27;20071;-54
2022/03/04 02:18:48;;;;;;;24.45;10.93;;;2.20;99.90;;;;;;5136172;27;20027;-54
2022/03/04 02:21:14;;;;;;;23.92;12.07;;;2.10;99.90;;;;;;5152943;27;20022;-54
2022/03/04 02:23:40;;;;;;;25.83;12.10;;;2.10;99.90;;;;;;5151987;27;20390;-54
2022/03/04 02:26:05;;;;;;;21.98;11.40;;;2.20;99.90;;;;;;5153083;27;20058;-54
2022/03/04 02:28:31;;;;;;;25.02;11.88;;;2.20;99.90;;;;;;5152955;27;20460;-54
2022/03/04 02:30:57;;;;;;;23.92;11.82;;;2.10;99.90;;;;;;5152394;27;20030;-54
2022/03/04 02:33:22;;;;;;;23.38;12.70;;;2.10;99.90;;;;;;5150663;27;20079;-53
2022/03/04 02:35:48;;;;;;;23.20;12.20;;;2.10;99.90;;;;;;5152380;27;20033;-54
2022/03/04 02:38:13;;;;;;;26.10;12.68;;;2.20;99.90;;;;;;5152506;27;20260;-54
2022/03/04 02:40:39;;;;;;;23.75;11.98;;;2.20;99.90;;;;;;5152283;27;20019;-54
2022/03/04 02:43:05;;;;;;;25.60;11.98;;;2.20;99.90;;;;;;5146023;27;20479;-54
2022/03/04 02:45:31;;;;;;;28.17;12.85;;;2.10;99.90;;;;;;5116092;27;20034;-54
2022/03/04 02:47:57;;;;;;;27.42;11.90;;;2.10;99.90;;;;;;5122818;27;20373;-54
2022/03/04 02:50:22;;;;;;;27.10;12.57;;;2.10;99.90;;;;;;5121577;27;20069;-54
2022/03/04 02:52:48;;;;;;;29.15;13.38;;;2.10;99.90;;;;;;5114661;27;20047;-55
2022/03/04 02:55:14;;;;;;;25.98;10.70;;;2.10;99.90;;;;;;5131269;27;20084;-54
2022/03/04 02:57:44;;;;;;;26.95;12.95;;;2.10;99.90;;;;;;5132132;27;20023;-55
2022/03/04 03:00:10;;;;;;;23.52;11.80;;;2.00;99.90;;;;;;5125965;27;20028;-55
2022/03/04 03:02:36;;;;;;;23.85;11.80;;;2.10;99.90;;;;;;5131651;27;20019;-55
2022/03/04 03:05:03;;;;;;;21.05;11.50;;;2.00;99.90;;;;;;5131227;27;20027;-55
2022/03/04 03:07:29;;;;;;;32.35;12.45;;;2.00;99.90;;;;;;5131762;27;20050;-54
2022/03/04 03:09:55;;;;;;;29.42;13.90;;;2.00;99.90;;;;;;5119556;27;20063;-55
2022/03/04 03:12:20;;;;;;;29.23;12.52;;;2.00;99.90;;;;;;5109876;28;20031;-55
2022/03/04 03:14:46;;;;;;;26.33;12.20;;;2.00;99.90;;;;;;5118340;27;20023;-54
2022/03/04 03:17:12;;;;;;;26.00;12.65;;;2.00;99.90;;;;;;5115664;27;20479;-54
2022/03/04 03:19:37;;;;;;;29.42;12.93;;;1.90;99.90;;;;;;5133908;27;20031;-54
2022/03/04 03:22:03;;;;;;;23.88;12.10;;;2.00;99.90;;;;;;5118266;28;20537;-54
2022/03/04 03:24:29;;;;;;;25.40;12.27;;;2.00;99.90;;;;;;5109313;28;20035;-54
2022/03/04 03:26:54;;;;;;;29.58;12.43;;;1.90;99.90;;;;;;5107965;28;20586;-54
2022/03/04 03:29:20;;;;;;;27.25;13.65;;;1.90;99.90;;;;;;5109648;28;20028;-54
2022/03/04 03:31:45;;;;;;;24.40;12.15;;;1.90;99.90;;;;;;5109369;28;20464;-54
2022/03/04 03:34:11;;;;;;;33.22;13.65;;;1.90;99.90;;;;;;5109103;28;20061;-54
2022/03/04 03:36:36;;;;;;;21.08;11.68;;;1.90;99.90;;;;;;5109872;28;20301;-54
2022/03/04 03:39:03;;;;;;;25.52;12.30;;;1.90;99.90;;;;;;5108122;28;20334;-54
2022/03/04 03:41:28;;;;;;;27.63;12.57;;;1.90;99.90;;;;;;5110108;28;20046;-52
2022/03/04 03:43:54;;;;;;;31.25;14.05;;;1.90;99.90;;;;;;5121378;27;20023;-52
2022/03/04 03:46:19;;;;;;;24.63;12.10;;;1.90;99.90;;;;;;5117312;28;20020;-51
2022/03/04 03:48:45;;;;;;;23.30;11.75;;;1.90;99.90;;;;;;5123394;27;20028;-51
2022/03/04 03:51:11;;;;;;;25.52;11.55;;;1.90;99.90;;;;;;5121198;27;20034;-51
2022/03/04 03:53:37;;;;;;;23.77;11.38;;;1.90;99.90;;;;;;5116781;28;20467;-51
2022/03/04 03:56:03;;;;;;;28.58;13.98;;;1.90;99.90;;;;;;5120207;28;20024;-52
2022/03/04 03:58:29;;;;;;;24.98;13.02;;;1.90;99.90;;;;;;5118116;28;20028;-52
2022/03/04 04:00:55;;;;;;;24.98;11.98;;;1.90;99.90;;;;;;5119225;28;20019;-51
2022/03/04 04:03:21;;;;;;;29.25;12.82;;;1.90;99.90;;;;;;5119267;28;20529;-56
2022/03/04 04:05:46;;;;;;;23.33;11.70;;;1.90;99.90;;;;;;5116994;27;20028;-56
2022/03/04 04:08:12;;;;;;;24.65;11.35;;;1.90;99.90;;;;;;5110815;28;20031;-56
2022/03/04 04:10:37;;;;;;;27.92;11.93;;;1.80;99.90;;;;;;5083673;27;996554;-54
2022/03/04 04:13:03;;;;;;;23.48;11.20;;;1.80;99.90;;;;;;5121084;27;20026;-54
2022/03/04 04:15:28;;;;;;;25.33;11.07;;;1.70;99.90;;;;;;5119197;27;20039;-55
2022/03/04 04:17:54;;;;;;;26.98;12.43;;;1.70;99.90;;;;;;5122712;27;20019;-56
2022/03/04 04:20:19;;;;;;;24.33;11.68;;;1.70;99.90;;;;;;5123857;27;20396;-54
2022/03/04 04:22:45;;;;;;;21.83;11.10;;;1.70;99.90;;;;;;5120410;27;20068;-54
2022/03/04 04:25:11;;;;;;;24.77;12.48;;;1.70;99.90;;;;;;5118998;27;20034;-55
2022/03/04 04:27:36;;;;;;;23.67;11.68;;;1.70;99.90;;;;;;5118438;27;20023;-55
2022/03/04 04:30:03;;;;;;;22.55;11.50;;;1.60;99.90;;;;;;5120640;27;20023;-55
2022/03/04 04:32:28;;;;;;;23.90;12.27;;;1.60;99.90;;;;;;5117431;27;20015;-55
2022/03/04 04:34:54;;;;;;;26.83;12.30;;;1.60;99.90;;;;;;5117294;27;20115;-54
2022/03/04 04:37:19;;;;;;;35.47;14.02;;;1.60;99.90;;;;;;5119854;27;20023;-54
2022/03/04 04:39:45;;;;;;;28.55;12.40;;;1.60;99.90;;;;;;5118823;27;20111;-55
2022/03/04 04:42:10;;;;;;;29.30;13.52;;;1.60;99.90;;;;;;5125863;27;20019;-54
2022/03/04 04:44:36;;;;;;;27.42;13.73;;;1.60;99.90;;;;;;5118906;27;20024;-54
2022/03/04 04:47:02;;;;;;;27.80;13.07;;;1.70;99.90;;;;;;5118062;27;20080;-55
2022/03/04 04:49:29;;;;;;;27.92;12.77;;;1.60;99.90;;;;;;5118000;27;20023;-54
2022/03/04 04:51:54;;;;;;;27.55;13.40;;;1.70;99.90;;;;;;5119485;27;20035;-55
2022/03/04 04:54:20;;;;;;;29.70;12.85;;;1.70;99.90;;;;;;5117416;27;20023;-55
2022/03/04 04:56:45;;;;;;;27.88;12.93;;;1.70;99.90;;;;;;5119970;27;20031;-55
2022/03/04 04:59:11;;;;;;;28.10;12.75;;;1.70;99.90;;;;;;5118843;27;20447;-54
2022/03/04 05:01:36;;;;;;;29.13;13.93;;;1.70;99.90;;;;;;5115142;27;20380;-54
2022/03/04 05:04:02;;;;;;;24.02;12.48;;;1.70;99.90;;;;;;5124447;27;20015;-54
2022/03/04 05:06:28;;;;;;;26.23;12.48;;;1.70;99.90;;;;;;5123222;27;20304;-55
2022/03/04 05:08:53;;;;;;;25.38;12.60;;;1.80;99.90;;;;;;5124726;27;20089;-55
2022/03/04 05:11:19;;;;;;;26.70;13.10;;;1.80;99.90;;;;;;5126110;27;20030;-54
2022/03/04 05:13:44;;;;;;;27.25;13.38;;;1.80;99.90;;;;;;5120363;27;20557;-55
2022/03/04 05:16:10;;;;;;;33.45;14.30;;;1.70;99.90;;;;;;5137786;27;20023;-55
2022/03/04 05:18:35;;;;;;;26.02;11.63;;;1.70;99.90;;;;;;5130895;27;20026;-55
2022/03/04 05:21:03;;;;;;;26.70;13.27;;;1.70;99.90;;;;;;5146809;27;20396;-55
2022/03/04 05:26:12;;;;;;;26.83;12.85;;;1.70;99.90;;;;;;5127639;27;20270;-55
2022/03/04 05:28:38;;;;;;;30.42;14.20;;;1.70;99.90;;;;;;5141060;27;20375;-55
2022/03/04 05:31:03;;;;;;;30.92;14.75;;;1.70;99.90;;;;;;5150005;27;20027;-55
2022/03/04 05:33:29;;;;;;;31.35;12.18;;;1.70;99.90;;;;;;5149450;27;20031;-55
2022/03/04 05:35:54;;;;;;;24.90;11.95;;;1.70;99.90;;;;;;5149429;27;20432;-55
2022/03/04 05:38:20;;;;;;;25.58;13.05;;;1.70;99.90;;;;;;5148135;27;20029;-55
2022/03/04 05:40:45;;;;;;;27.85;12.68;;;1.70;99.90;;;;;;5149335;27;20360;-55
2022/03/04 05:43:11;;;;;;;30.77;12.77;;;1.70;99.90;;;;;;5149500;27;20018;-55
2022/03/04 05:45:36;;;;;;;25.05;12.68;;;1.70;99.90;;;;;;5149370;27;20053;-55
2022/03/04 05:48:02;;;;;;;31.08;13.52;;;1.80;99.90;;;;;;5149332;27;20022;-55
2022/03/04 05:50:27;;;;;;;25.85;13.75;;;1.80;99.90;;;;;;5149288;27;20464;-54
2022/03/04 05:52:53;;;;;;;26.63;12.65;;;1.80;99.90;;;;;;5148371;27;20180;-56
2022/03/04 05:55:18;;;;;;;24.15;11.88;;;1.80;99.90;;;;;;5107620;28;20474;-56
2022/03/04 05:57:43;;;;;;;29.40;12.57;;;1.80;99.90;;;;;;5140718;27;20023;-55
2022/03/04 06:00:10;;;;;;;26.35;13.10;;;1.80;99.90;;;;;;5127428;27;20444;-55
2022/03/04 06:02:35;;;;;;;24.95;13.02;;;1.80;99.90;;;;;;5128415;27;20381;-55
2022/03/04 06:05:00;;;;;;;26.15;13.05;;;1.80;99.90;;;;;;5112776;27;20090;-55
2022/03/04 06:07:28;;;;;;;29.45;14.20;;;1.80;99.90;;;;;;5113222;28;20019;-56
2022/03/04 06:09:53;;;;;;;21.35;12.00;;;1.90;99.90;;;;;;5117845;27;20030;-56
2022/03/04 06:12:19;;;;;;;23.02;11.35;;;1.90;99.90;;;;;;5115737;27;20388;-56
2022/03/04 06:14:45;;;;;;;28.80;12.25;;;1.90;99.90;;;;;;5115761;27;20483;-55
2022/03/04 06:17:10;;;;;;;20.05;10.40;;;2.00;99.90;;;;;;5117757;27;20039;-56
2022/03/04 06:19:36;;;;;;;29.77;13.52;;;2.00;99.90;;;;;;5134742;27;20107;-56
2022/03/04 06:22:02;;;;;;;26.42;13.13;;;2.00;99.90;;;;;;5118955;27;20047;-56
2022/03/04 06:24:27;;;;;;;25.10;12.02;;;2.00;99.90;;;;;;5117380;28;20020;-55
2022/03/04 06:26:53;;;;;;;29.38;13.35;;;2.00;99.90;;;;;;5108477;28;20057;-55
2022/03/04 06:29:18;;;;;;;27.60;13.60;;;2.10;99.90;;;;;;5106862;28;20405;-55
2022/03/04 06:31:43;;;;;;;27.15;12.82;;;2.00;99.90;;;;;;5107100;28;20056;-55
2022/03/04 06:34:09;;;;;;;26.00;13.07;;;2.00;99.90;;;;;;5106407;28;20028;-55
2022/03/04 06:36:34;;;;;;;31.65;14.25;;;2.00;99.90;;;;;;5107291;28;20035;-56
2022/03/04 06:39:00;;;;;;;29.10;13.88;;;2.00;99.90;;;;;;5110899;27;20456;-55
2022/03/04 06:41:25;;;;;;;22.95;12.40;;;2.10;99.90;;;;;;5139576;27;20438;-54
2022/03/04 06:43:51;;;;;;;28.58;11.98;;;2.10;99.90;;;;;;5147836;27;20030;-55
2022/03/04 06:46:16;;;;;;;23.88;11.82;;;2.10;99.90;;;;;;5146955;27;20191;-55
2022/03/04 06:48:42;;;;;;;25.60;12.38;;;2.10;99.90;;;;;;5148103;27;20023;-55
2022/03/04 06:51:08;;;;;;;26.67;12.88;;;2.10;99.90;;;;;;5148113;27;20446;-55
2022/03/04 06:53:33;;;;;;;27.75;12.43;;;2.10;99.90;;;;;;5146152;27;20368;-55
2022/03/04 06:55:59;;;;;;;27.60;13.27;;;2.10;99.90;;;;;;5148256;27;20026;-55
2022/03/04 06:58:26;;;;;;;24.77;12.57;;;2.10;99.90;;;;;;5146570;27;20483;-55
2022/03/04 07:00:52;;;;;;;31.13;13.07;;;2.20;99.90;;;;;;5138358;27;20499;-55
2022/03/04 07:03:18;;;;;;;26.42;12.02;;;2.20;99.90;;;;;;5120340;27;20023;-55
2022/03/04 07:05:45;;;;;;;23.70;13.43;;;2.20;99.90;;;;;;5119556;27;20022;-55
2022/03/04 07:08:12;;;;;;;30.65;14.98;;;2.20;99.90;;;;;;5119415;27;20534;-55
2022/03/04 07:10:39;;;;;;;27.52;14.80;;;2.20;99.90;;;;;;5127525;27;20264;-55
2022/03/04 07:13:05;;;;;;;32.83;16.10;;;2.20;99.90;;;;;;5151951;27;20031;-55
2022/03/04 07:15:30;;;;;;;36.60;15.45;;;2.10;99.90;;;;;;5151782;27;20022;-55
2022/03/04 07:17:56;;;;;;;34.70;15.98;;;2.10;99.90;;;;;;5141498;27;20034;-55
2022/03/04 07:20:21;;;;;;;31.35;14.48;;;2.10;99.90;;;;;;5143668;27;20031;-55
2022/03/04 07:22:47;;;;;;;31.60;15.05;;;2.10;99.90;;;;;;5152360;27;20472;-56
2022/03/04 07:25:15;;;;;;;38.42;15.55;;;2.00;99.90;;;;;;5150136;27;20046;-55
2022/03/04 07:27:41;;;;;;;31.08;14.80;;;2.00;99.90;;;;;;5152121;27;20113;-55
2022/03/04 07:30:13;;;;;;;34.08;15.88;;;2.00;99.90;;;;;;5150943;27;20053;-56
2022/03/04 07:32:40;;;;;;;35.13;15.98;;;2.00;99.90;;;;;;5140629;27;20155;-54
2022/03/04 07:35:07;;;;;;;37.40;15.35;;;1.90;99.90;;;;;;5119177;27;20495;-54
2022/03/04 07:37:34;;;;;;;26.10;13.70;;;1.80;99.90;;;;;;5122593;27;20532;-54
2022/03/04 07:40:00;;;;;;;31.20;14.65;;;1.80;99.90;;;;;;5130560;27;20027;-55
2022/03/04 07:42:25;;;;;;;37.03;15.70;;;1.90;99.90;;;;;;5132703;27;20796;-54
2022/03/04 07:44:51;;;;;;;37.95;16.45;;;1.90;99.90;;;;;;5130536;27;20071;-55
2022/03/04 07:47:16;;;;;;;31.92;14.77;;;2.10;99.90;;;;;;5132135;27;20027;-54
2022/03/04 07:49:42;;;;;;;35.72;14.95;;;2.10;99.90;;;;;;5133433;27;20126;-55
2022/03/04 07:52:09;;;;;;;27.13;13.25;;;2.00;99.90;;;;;;5141798;27;20083;-55
2022/03/04 07:54:35;;;;;;;25.98;13.48;;;2.00;99.90;;;;;;5151268;27;20046;-54
2022/03/04 07:57:01;;;;;;;27.33;12.70;;;2.10;99.90;;;;;;5151770;27;20448;-55
2022/03/04 07:59:26;;;;;;;33.53;12.93;;;2.10;99.90;;;;;;5151340;27;20038;-55
2022/03/04 08:01:52;;;;;;;24.92;11.82;;;2.00;99.90;;;;;;5151756;27;20387;-55
2022/03/04 08:04:17;;;;;;;23.45;12.50;;;2.10;99.90;;;;;;5150845;27;20050;-54
2022/03/04 08:06:42;;;;;;;26.42;12.10;;;2.00;99.90;;;;;;5151412;27;20019;-55
2022/03/04 08:09:08;;;;;;;30.40;13.25;;;2.10;99.90;;;;;;5151378;27;20049;-55
2022/03/04 08:11:34;;;;;;;29.70;14.48;;;2.20;99.90;;;;;;5151282;27;20091;-55
2022/03/04 08:14:00;;;;;;;25.10;11.85;;;2.00;99.90;;;;;;5149627;27;20395;-55
2022/03/04 08:16:25;;;;;;;26.10;12.88;;;2.00;99.90;;;;;;5149734;27;20045;-55
2022/03/04 08:18:52;;;;;;;22.83;11.90;;;1.90;99.90;;;;;;5127053;27;20035;-55
2022/03/04 08:21:18;;;;;;;27.40;13.27;;;1.90;99.90;;;;;;5122665;27;20016;-55
2022/03/04 08:23:43;;;;;;;22.63;11.85;;;2.00;99.90;;;;;;5119247;27;20084;-55
2022/03/04 08:26:09;;;;;;;23.52;11.80;;;2.00;99.90;;;;;;5120355;27;20034;-55
2022/03/04 08:28:35;;;;;;;24.73;12.50;;;2.10;99.90;;;;;;5118593;27;20415;-55
2022/03/04 08:31:03;;;;;;;28.20;11.73;;;2.10;99.90;;;;;;5118591;27;20011;-55
2022/03/04 08:33:28;;;;;;;26.13;13.18;;;2.20;99.90;;;;;;5119674;27;20007;-55
2022/03/04 08:35:54;;;;;;;26.55;11.57;;;2.10;99.90;;;;;;5118026;27;20022;-55
2022/03/04 08:38:20;;;;;;;23.83;11.07;;;2.10;99.90;;;;;;5115226;27;20126;-55
2022/03/04 08:40:46;;;;;;;20.60;10.57;;;2.20;99.90;;;;;;5134795;27;20486;-55
2022/03/04 08:43:13;;;;;;;20.25;11.38;;;2.20;99.90;;;;;;5109985;28;20152;-55
2022/03/04 08:45:39;;;;;;;21.75;11.70;;;2.20;99.90;;;;;;5109164;28;20031;-55
2022/03/04 08:48:06;;;;;;;20.83;11.07;;;2.20;99.90;;;;;;5109057;28;20099;-55
2022/03/04 08:50:33;;;;;;;24.98;11.75;;;2.10;99.90;;;;;;5109258;28;20024;-54
2022/03/04 08:53:02;;;;;;;22.63;11.13;;;2.00;99.90;;;;;;5110027;28;20072;-54
2022/03/04 08:55:30;;;;;;;24.88;12.52;;;2.00;99.90;;;;;;5110106;28;20020;-54
2022/03/04 08:57:56;;;;;;;25.15;12.63;;;2.10;99.90;;;;;;5117879;27;20034;-55
2022/03/04 09:00:22;;;;;;;24.52;11.75;;;2.20;99.90;;;;;;5123457;27;20030;-55
2022/03/04 09:02:47;;;;;;;24.92;11.70;;;2.20;99.90;;;;;;5116913;27;20373;-55
2022/03/04 09:05:13;;;;;;;21.58;11.35;;;2.00;99.90;;;;;;5117211;27;20015;-55
2022/03/04 09:07:39;;;;;;;20.23;11.02;;;2.00;99.90;;;;;;5118345;27;20102;-55
2022/03/04 09:10:05;;;;;;;22.60;11.93;;;2.00;99.90;;;;;;5124459;27;20417;-55
2022/03/04 09:12:33;;;;;;;24.42;11.68;;;2.10;99.90;;;;;;5122071;27;20024;-55
2022/03/04 09:14:58;;;;;;;24.05;11.63;;;1.90;99.90;;;;;;5118174;27;20151;-55
2022/03/04 09:17:24;;;;;;;46.28;22.98;;;1.90;99.90;;;;;;5119580;27;20030;-55
2022/03/04 09:19:51;;;;;;;23.58;12.38;;;1.90;99.90;;;;;;5135113;27;20023;-55
2022/03/04 09:22:16;;;;;;;25.33;13.05;;;1.90;99.90;;;;;;5150932;27;20087;-55
2022/03/04 09:24:42;;;;;;;19.90;10.40;;;1.80;99.90;;;;;;5149237;27;20425;-55
2022/03/04 09:27:07;;;;;;;25.80;12.07;;;1.80;99.90;;;;;;5150564;27;20023;-55
2022/03/04 09:29:33;;;;;;;21.50;10.60;;;1.80;99.90;;;;;;5149319;27;20487;-55
2022/03/04 09:31:59;;;;;;;23.58;12.18;;;1.80;99.90;;;;;;5150543;27;20018;-55
2022/03/04 09:34:25;;;;;;;21.90;11.65;;;1.80;99.90;;;;;;5149629;27;20506;-55
2022/03/04 09:36:50;;;;;;;20.58;9.77;;;1.90;99.90;;;;;;5126694;27;20397;-55
2022/03/04 09:39:16;;;;;;;25.67;11.88;;;1.90;99.90;;;;;;5117227;27;20038;-55
2022/03/04 09:41:44;;;;;;;23.17;11.38;;;1.90;99.90;;;;;;5141696;27;20378;-55
2022/03/04 09:44:11;;;;;;;24.48;12.75;;;1.90;99.90;;;;;;5140734;27;20043;-55
2022/03/04 09:46:39;;;;;;;28.45;12.18;;;2.00;99.90;;;;;;5120287;27;20031;-55
2022/03/04 09:49:05;;;;;;;23.25;12.07;;;1.90;99.90;;;;;;5126382;27;20055;-55
2022/03/04 09:51:31;;;;;;;20.15;11.73;;;1.90;99.90;;;;;;5125542;27;20440;-55
2022/03/04 09:53:56;;;;;;;21.33;11.65;;;2.00;99.90;;;;;;5120942;27;20062;-55
2022/03/04 09:56:22;;;;;;;21.77;11.40;;;2.10;99.90;;;;;;5118406;27;20027;-55
2022/03/04 09:58:48;;;;;;;19.25;10.55;;;2.10;99.90;;;;;;5115523;27;20019;-55
2022/03/04 10:01:15;;;;;;;17.10;8.43;;;2.10;99.90;;;;;;5118952;27;20015;-55
2022/03/04 10:03:43;;;;;;;16.02;8.02;;;2.30;99.90;;;;;;5117439;28;20024;-55
2022/03/04 10:06:09;;;;;;;13.48;6.82;;;2.30;99.90;;;;;;5125636;28;20019;-55
2022/03/04 10:08:38;;;;;;;14.77;6.55;;;2.30;99.90;;;;;;5126812;27;20027;-55
2022/03/04 10:11:04;;;;;;;12.98;7.25;;;2.40;99.90;;;;;;5138864;27;20093;-55
2022/03/04 10:13:41;;;;;;;14.85;6.07;;;2.50;99.90;;;;;;5115096;27;20059;-55
2022/03/04 10:16:07;;;;;;;12.07;6.05;;;2.60;99.90;;;;;;5127233;27;20061;-54
2022/03/04 10:18:33;;;;;;;11.63;6.65;;;2.80;99.90;;;;;;5132074;27;20027;-54
2022/03/04 10:20:59;;;;;;;13.82;7.30;;;2.90;99.90;;;;;;5141345;27;20026;-54
2022/03/04 10:23:27;;;;;;;14.68;6.82;;;2.90;99.90;;;;;;5111180;27;20019;-54
2022/03/04 10:25:55;;;;;;;15.65;7.13;;;3.00;99.90;;;;;;5113604;28;20026;-55
2022/03/04 10:28:30;;;;;;;11.40;6.63;;;3.00;99.90;;;;;;5118665;27;20020;-55
2022/03/04 10:30:57;;;;;;;14.15;7.63;;;3.10;99.90;;;;;;5117637;27;20014;-55
2022/03/04 10:33:28;;;;;;;15.57;6.90;;;3.10;99.90;;;;;;5113165;28;20500;-55
2022/03/04 10:36:11;;;;;;;12.75;6.50;;;3.20;99.90;;;;;;5108283;28;20042;-55
2022/03/04 10:38:38;;;;;;;10.40;5.85;;;3.20;99.90;;;;;;5114691;27;20025;-55
2022/03/04 10:41:24;;;;;;;12.07;6.60;;;3.30;99.90;;;;;;5125070;27;20020;-55
2022/03/04 10:43:51;;;;;;;12.18;6.78;;;3.40;99.90;;;;;;5138886;27;20156;-55
2022/03/04 10:46:17;;;;;;;11.38;6.22;;;3.50;99.90;;;;;;5132894;27;20063;-56
2022/03/04 10:48:57;;;;;;;14.98;9.25;;;3.40;99.90;;;;;;5134393;27;20152;-56
2022/03/04 10:51:34;;;;;;;11.27;7.00;;;3.50;99.90;;;;;;5134583;27;20171;-56
2022/03/04 10:54:13;;;;;;;11.25;6.25;;;3.50;99.90;;;;;;5134302;27;20133;-57
2022/03/04 10:56:55;;;;;;;13.43;6.57;;;3.60;99.90;;;;;;5134660;27;20584;-55
2022/03/04 10:59:22;;;;;;;10.23;6.07;;;3.90;99.90;;;;;;5134383;27;20106;-55
2022/03/04 11:01:55;;;;;;;8.75;5.40;;;4.00;99.90;;;;;;5128963;27;20464;-55
2022/03/04 11:04:20;;;;;;;13.18;5.70;;;4.00;99.90;;;;;;5117465;27;20419;-55
2022/03/04 11:06:48;;;;;;;9.25;5.55;;;4.10;99.90;;;;;;5112367;28;20023;-55
2022/03/04 11:09:15;;;;;;;12.27;5.88;;;4.40;99.90;;;;;;5113250;28;20027;-55
2022/03/04 11:11:43;;;;;;;11.65;6.22;;;4.30;99.90;;;;;;5116456;27;20112;-55
2022/03/04 11:14:12;;;;;;;9.52;5.63;;;4.10;99.90;;;;;;5142052;27;20023;-55
2022/03/04 11:16:38;;;;;;;10.55;5.57;;;4.10;99.90;;;;;;5151648;27;20053;-55
2022/03/04 11:19:08;;;;;;;12.38;6.50;;;4.10;99.90;;;;;;5143070;27;20050;-54
2022/03/04 11:21:34;;;;;;;8.50;5.55;;;4.10;99.90;;;;;;5146132;27;20506;-55
2022/03/04 11:24:00;;;;;;;14.13;6.60;;;3.90;99.90;;;;;;5151498;27;20019;-55
2022/03/04 11:26:29;;;;;;;9.10;5.60;;;4.00;99.90;;;;;;5151051;27;20022;-55
2022/03/04 11:28:56;;;;;;;11.43;6.60;;;4.00;99.90;;;;;;5151466;27;20054;-54
2022/03/04 11:31:25;;;;;;;10.90;6.18;;;4.10;99.90;;;;;;5149993;27;20045;-54
2022/03/04 11:33:57;;;;;;;12.18;6.63;;;4.10;99.90;;;;;;5149606;27;20419;-54
2022/03/04 11:36:30;;;;;;;9.77;5.88;;;4.20;99.90;;;;;;5150363;27;20034;-54
2022/03/04 11:38:58;;;;;;;9.80;6.22;;;4.20;99.90;;;;;;5151617;27;20087;-54
2022/03/04 11:41:30;;;;;;;12.13;6.30;;;4.40;99.90;;;;;;5151310;27;20058;-55
2022/03/04 11:44:14;;;;;;;12.02;6.50;;;4.60;99.90;;;;;;5151872;27;20156;-55
2022/03/04 11:46:45;;;;;;;11.40;5.78;;;4.60;99.90;;;;;;5151585;27;20018;-55
2022/03/04 11:49:47;;;;;;;10.55;6.10;;;4.60;99.90;;;;;;5142368;27;20027;-55
2022/03/04 11:52:40;;;;;;;12.35;5.95;;;4.50;99.90;;;;;;5110168;28;20115;-54
2022/03/04 11:55:07;;;;;;;10.57;5.80;;;4.60;99.90;;;;;;5107892;28;20027;-54
2022/03/04 11:57:40;;;;;;;11.27;5.78;;;4.50;99.90;;;;;;5109053;28;20032;-54
2022/03/04 12:00:12;;;;;;;9.70;5.78;;;4.40;99.90;;;;;;5109979;28;20087;-54
2022/03/04 12:02:46;;;;;;;11.93;5.70;;;4.60;99.90;;;;;;5108747;28;20028;-55
2022/03/04 12:05:14;;;;;;;10.02;5.32;;;4.70;99.90;;;;;;5124944;27;20019;-55
2022/03/04 12:07:47;;;;;;;9.48;5.95;;;4.90;99.90;;;;;;5110089;28;20396;-55
2022/03/04 12:10:20;;;;;;;9.77;5.85;;;5.00;99.90;;;;;;5109827;28;20055;-54
2022/03/04 12:13:10;;;;;;;9.68;5.50;;;5.20;99.90;;;;;;5109640;28;20028;-55
2022/03/04 12:15:38;;;;;;;8.10;5.28;;;5.40;99.90;;;;;;5124905;27;20024;-55
2022/03/04 12:18:18;;;;;;;9.02;5.63;;;5.50;99.90;;;;;;5114257;27;20026;-56
2022/03/04 12:20:44;;;;;;;7.53;5.15;;;5.80;99.90;;;;;;5129326;27;20027;-55
2022/03/04 12:23:10;;;;;;;12.55;6.07;;;6.20;99.90;;;;;;5126804;27;20019;-55
2022/03/04 12:25:57;;;;;;;11.75;5.80;;;6.50;99.90;;;;;;5121667;27;20031;-55
2022/03/04 12:28:32;;;;;;;9.50;6.03;;;6.70;99.90;;;;;;5116433;27;20020;-55
2022/03/04 12:31:00;;;;;;;14.20;6.80;;;6.70;99.90;;;;;;5109316;27;20519;-54
2022/03/04 12:33:30;;;;;;;9.15;6.05;;;6.90;99.90;;;;;;5112681;27;20585;-54
2022/03/04 12:35:57;;;;;;;11.73;5.65;;;6.80;99.90;;;;;;5129218;27;20059;-54
2022/03/04 12:38:24;;;;;;;10.30;6.00;;;6.70;99.90;;;;;;5116731;27;20035;-54
2022/03/04 12:40:49;;;;;;;12.63;5.60;;;6.70;99.90;;;;;;5122953;27;20055;-54
2022/03/04 12:43:15;;;;;;;9.35;5.40;;;6.40;99.90;;;;;;5119421;27;20051;-54